AYMH

Mount Hagen Kagamuga Airport

Airport
ICAO code
AYMH
IATA Code
HGU
Summary
ICAO Region
APAC
ICAO Territory
Location

, Western Highlands

Serving
Mount Hagen
Elevation
5388 ft
Coordinates
5° 49' 36" S , 144° 17' 45" E
Metar
Observation
AYMH 310700Z VRB04KT 9999 SHRA BKN040 19/17 Q1018 RMK
Station
MOUNT HAGEN
Date/Time
2023-01-31 07:00:00
Wind speed
04 kts
Lowest cloud amount
broken clouds
Temperature
19°C
Dew point
17°C
Humidity
88%
QNH
1018 hPa
Weather condition
showers rain

Runways

Designator Length Width Surface Rops
8/26 1097 18 ASP No/No
12/30 2190 30 ASP No/No

Airport map

Aerial View

SKYbrary Partners:

Safety knowledge contributed by: